Time;durP1;ratioP1;P1;durP2;ratioP2;P2;SDS_P1;SDS_P2;PMS_P1;PMS_P2;Temp;Humidity;BMP_temperature;BMP_pressure;BME280_temperature;BME280_humidity;BME280_pressure;Samples;Min_cycle;Max_cycle;Signal;HPM_P1;HPM_P2
2023/05/15 00:01:07;;;;;;;6.40;4.00;;;;;;;21.33;35.19;99884.47;104479;1269;70145;-62
2023/05/15 00:03:34;;;;;;;5.20;4.30;;;;;;;21.27;36.28;99885.32;104460;1259;75310;-62
2023/05/15 00:06:01;;;;;;;4.20;3.60;;;;;;;21.20;36.43;99884.65;104550;1259;59944;-63
2023/05/15 00:08:28;;;;;;;5.00;3.70;;;;;;;21.15;36.07;99881.70;104515;1255;61051;-61
2023/05/15 00:10:55;;;;;;;4.80;3.80;;;;;;;21.15;35.72;99880.30;104448;1259;73489;-61
2023/05/15 00:13:27;;;;;;;5.60;3.80;;;;;;;21.12;35.54;99880.66;104640;1259;71533;-62
2023/05/15 00:15:55;;;;;;;4.60;3.40;;;;;;;21.10;35.04;99881.27;104407;1254;72502;-61
2023/05/15 00:18:22;;;;;;;5.10;3.20;;;;;;;21.05;35.30;99881.11;104586;1259;60798;-61
2023/05/15 00:20:49;;;;;;;3.10;2.90;;;;;;;21.00;35.25;99880.59;104320;1259;63098;-61
2023/05/15 00:23:16;;;;;;;3.80;3.40;;;;;;;20.97;35.01;99882.49;104823;1259;74019;-61
2023/05/15 00:25:43;;;;;;;2.60;2.40;;;;;;;20.95;35.22;99879.10;104422;1269;69567;-61
2023/05/15 00:28:11;;;;;;;3.10;2.90;;;;;;;20.92;35.74;99881.67;104372;1263;73094;-65
2023/05/15 00:30:38;;;;;;;5.40;2.60;;;;;;;20.86;35.58;99879.83;104508;1260;59824;-61
2023/05/15 00:33:06;;;;;;;3.00;2.80;;;;;;;20.79;35.51;99883.08;104622;1253;60393;-61
2023/05/15 00:35:33;;;;;;;3.90;3.40;;;;;;;20.76;35.32;99880.80;104279;1254;73302;-62
2023/05/15 00:38:00;;;;;;;4.40;3.30;;;;;;;20.72;35.70;99881.88;104220;1259;70272;-61
2023/05/15 00:40:28;;;;;;;6.20;3.30;;;;;;;20.57;35.94;99878.59;104426;1273;72751;-61
2023/05/15 00:42:55;;;;;;;3.20;3.00;;;;;;;20.56;35.26;99874.02;104453;1260;60591;-61
2023/05/15 00:45:22;;;;;;;4.80;2.90;;;;;;;20.54;35.73;99875.56;104270;1258;60418;-61
2023/05/15 00:47:50;;;;;;;4.30;3.30;;;;;;;20.53;36.13;99870.52;104354;1259;72994;-61
2023/05/15 00:50:17;;;;;;;3.20;2.90;;;;;;;20.50;36.25;99871.12;104402;1262;70123;-61
2023/05/15 00:52:45;;;;;;;3.80;2.80;;;;;;;20.48;36.38;99868.95;104396;1263;73076;-64
2023/05/15 00:55:12;;;;;;;3.50;2.80;;;;;;;20.50;36.20;99870.41;104347;1275;61428;-61
2023/05/15 00:57:41;;;;;;;3.10;2.80;;;;;;;20.43;36.12;99869.55;104361;1254;62601;-61
2023/05/15 01:00:09;;;;;;;3.40;2.70;;;;;;;20.37;36.34;99864.88;104246;1261;73480;-60
2023/05/15 01:02:36;;;;;;;4.30;3.40;;;;;;;20.33;36.41;99866.08;104641;1259;72710;-61
2023/05/15 01:05:07;;;;;;;7.80;2.70;;;;;;;20.30;36.82;99861.67;104399;1259;74996;-60
2023/05/15 01:07:40;;;;;;;3.80;3.20;;;;;;;20.26;36.74;99865.38;104416;1259;61292;-60
2023/05/15 01:10:07;;;;;;;4.30;3.00;;;;;;;20.28;36.23;99863.46;104281;1260;60896;-61
2023/05/15 01:12:34;;;;;;;4.10;2.90;;;;;;;20.26;36.60;99863.21;104636;1267;74982;-61
2023/05/15 01:15:01;;;;;;;4.20;2.70;;;;;;;20.17;36.91;99864.69;104376;1272;70479;-61
2023/05/15 01:17:29;;;;;;;3.40;2.80;;;;;;;20.09;37.21;99865.29;104384;1258;72902;-61
2023/05/15 01:19:56;;;;;;;2.90;2.50;;;;;;;20.05;37.14;99866.52;104314;1263;62042;-62
2023/05/15 01:23:03;;;;;;;3.30;2.50;;;;;;;19.97;37.65;99867.65;104542;1259;60612;-62
2023/05/15 01:25:52;;;;;;;2.90;2.60;;;;;;;19.95;37.31;99866.77;104461;1260;73991;-61
2023/05/15 01:28:22;;;;;;;3.00;2.50;;;;;;;19.89;37.33;99867.05;104407;1266;70681;-61
2023/05/15 01:30:50;;;;;;;2.80;2.20;;;;;;;19.83;37.26;99867.09;104240;1270;72680;-62
2023/05/15 01:33:19;;;;;;;3.90;2.80;;;;;;;19.86;36.65;99869.77;104553;1259;60464;-61
2023/05/15 01:35:58;;;;;;;3.10;2.80;;;;;;;19.82;36.78;99873.83;104526;1259;60640;-61
2023/05/15 01:38:54;;;;;;;2.90;2.70;;;;;;;19.73;36.82;99871.46;104315;1267;74193;-62
2023/05/15 01:41:21;;;;;;;2.80;2.60;;;;;;;19.74;37.66;99868.95;104538;1261;70237;-61
2023/05/15 01:43:54;;;;;;;3.20;2.90;;;;;;;19.69;38.05;99864.66;104465;1270;73389;-61
2023/05/15 01:46:22;;;;;;;3.00;2.70;;;;;;;19.65;37.83;99866.35;104348;1257;60553;-61
2023/05/15 01:48:49;;;;;;;;;;;;;;;19.63;37.16;99863.34;104638;1259;60765;-60
2023/05/15 01:51:18;;;;;;;2.80;2.60;;;;;;;19.61;37.24;99860.45;104645;1268;73828;-60
2023/05/15 01:53:45;;;;;;;2.90;2.70;;;;;;;19.52;37.08;99860.99;104277;1263;70030;-61
2023/05/15 01:56:13;;;;;;;3.00;2.80;;;;;;;19.45;37.84;99865.22;104008;1270;72738;-59
2023/05/15 01:58:40;;;;;;;;;;;;;;;19.42;37.87;99868.14;104255;1260;61243;-63
2023/05/15 02:01:07;;;;;;;3.00;2.70;;;;;;;19.36;37.89;99866.79;104283;1260;60773;-63
2023/05/15 02:03:34;;;;;;;3.10;2.70;;;;;;;19.28;37.52;99864.96;104330;1263;74812;-64
2023/05/15 02:06:02;;;;;;;4.90;3.20;;;;;;;19.25;38.33;99868.51;104450;1259;68880;-64
2023/05/15 02:08:30;;;;;;;3.10;2.80;;;;;;;19.22;38.62;99865.21;104443;1263;75952;-63
2023/05/15 02:10:57;;;;;;;4.10;3.10;;;;;;;19.16;38.81;99866.72;104541;1264;60665;-64
2023/05/15 02:13:24;;;;;;;2.80;2.60;;;;;;;19.09;38.29;99867.06;104354;1272;60668;-63
2023/05/15 02:15:51;;;;;;;4.80;3.10;;;;;;;19.04;38.59;99870.45;104491;1255;73766;-63
2023/05/15 02:18:19;;;;;;;4.00;3.10;;;;;;;19.00;38.69;99867.52;104734;1259;70685;-63
2023/05/15 02:20:46;;;;;;;5.30;3.30;;;;;;;18.98;39.29;99869.65;104350;1275;72643;-63
2023/05/15 02:23:14;;;;;;;3.50;3.20;;;;;;;18.97;39.12;99872.08;104273;1271;60555;-63
2023/05/15 02:25:53;;;;;;;4.80;3.70;;;;;;;18.96;38.85;99873.02;104426;1254;60557;-63
2023/05/15 02:28:29;;;;;;;8.00;3.00;;;;;;;19.01;39.10;99871.91;104750;1254;74818;-63
2023/05/15 02:31:02;;;;;;;3.40;3.00;;;;;;;19.00;38.61;99874.13;104534;1260;69336;-64
2023/05/15 02:33:50;;;;;;;5.60;3.60;;;;;;;18.98;38.73;99870.73;104388;1258;73854;-63
2023/05/15 02:36:19;;;;;;;5.90;3.30;;;;;;;19.03;38.71;99869.09;104231;1276;60753;-64
2023/05/15 02:38:52;;;;;;;4.30;3.00;;;;;;;19.04;38.97;99870.45;104359;1270;61077;-63
2023/05/15 02:41:20;;;;;;;4.60;3.20;;;;;;;19.04;38.82;99868.11;104369;1257;74307;-63
2023/05/15 02:43:49;;;;;;;8.20;3.20;;;;;;;19.08;38.64;99864.14;104276;1270;70137;-63
2023/05/15 02:46:17;;;;;;;6.20;3.30;;;;;;;19.10;38.71;99861.34;104375;1254;73655;-63
2023/05/15 02:48:45;;;;;;;5.30;3.10;;;;;;;19.09;38.89;99859.23;104333;1265;60628;-63
2023/05/15 02:51:12;;;;;;;3.70;2.80;;;;;;;19.10;38.71;99859.91;104442;1262;60581;-64
2023/05/15 02:53:40;;;;;;;5.10;3.10;;;;;;;19.12;38.84;99859.77;104156;1263;74859;-64
2023/05/15 02:56:07;;;;;;;3.80;3.00;;;;;;;19.11;38.89;99855.17;104568;1259;69976;-64
2023/05/15 02:58:34;;;;;;;3.30;2.90;;;;;;;19.13;38.96;99858.61;104461;1255;72637;-64
2023/05/15 03:01:03;;;;;;;2.90;2.60;;;;;;;19.15;38.92;99857.75;104335;1255;60553;-63
2023/05/15 03:03:30;;;;;;;3.20;2.90;;;;;;;19.18;39.62;99858.42;104377;1262;61435;-63
2023/05/15 03:05:59;;;;;;;3.70;2.80;;;;;;;19.20;39.38;99861.29;104475;1274;74226;-64
2023/05/15 03:08:27;;;;;;;3.30;3.00;;;;;;;19.26;39.50;99861.56;104360;1263;70163;-64
2023/05/15 03:10:54;;;;;;;2.90;2.60;;;;;;;19.27;39.31;99863.39;104370;1260;73366;-64
2023/05/15 03:13:22;;;;;;;4.00;2.70;;;;;;;19.28;39.24;99857.43;104504;1259;62261;-63
2023/05/15 03:15:49;;;;;;;4.10;2.90;;;;;;;19.35;39.45;99854.77;104843;1257;60507;-61
2023/05/15 03:18:17;;;;;;;3.40;2.80;;;;;;;19.39;39.35;99858.61;104445;1263;76515;-61
2023/05/15 03:20:46;;;;;;;5.70;2.70;;;;;;;19.44;39.38;99860.38;104426;1254;71003;-61
2023/05/15 03:23:13;;;;;;;4.90;2.60;;;;;;;19.48;39.80;99863.77;104362;1269;73104;-62
2023/05/15 03:25:40;;;;;;;3.30;2.60;;;;;;;19.51;39.89;99862.13;104587;1257;60670;-62
2023/05/15 03:28:07;;;;;;;2.80;2.50;;;;;;;19.54;39.52;99864.39;104578;1264;61862;-62
2023/05/15 03:30:34;;;;;;;3.40;2.80;;;;;;;19.59;39.59;99865.03;104475;1260;73853;-62
2023/05/15 03:33:05;;;;;;;4.40;2.50;;;;;;;19.68;39.52;99868.30;104599;1259;69275;-61
2023/05/15 03:35:32;;;;;;;3.40;2.30;;;;;;;19.74;39.10;99867.98;104476;1258;72682;-61
2023/05/15 03:38:01;;;;;;;;;;;;;;;19.80;38.78;99866.98;104428;1272;60594;-61
2023/05/15 03:40:28;;;;;;;2.20;1.90;;;;;;;19.87;38.87;99866.47;104587;1259;60869;-61
2023/05/15 03:42:57;;;;;;;3.20;2.50;;;;;;;19.63;39.20;99872.92;104275;1253;74702;-65
2023/05/15 03:45:24;;;;;;;2.70;2.50;;;;;;;19.65;39.40;99876.14;104532;1266;70592;-62
2023/05/15 03:47:51;;;;;;;;;;;;;;;19.99;39.33;99877.15;104407;1260;73396;-61
2023/05/15 03:50:19;;;;;;;2.40;2.20;;;;;;;20.19;39.58;99877.27;104309;1267;60429;-61
2023/05/15 03:52:46;;;;;;;2.90;2.60;;;;;;;20.12;39.58;99878.40;104477;1259;62201;-64
2023/05/15 03:55:13;;;;;;;2.90;2.70;;;;;;;20.08;39.59;99879.09;104513;1258;76157;-62
2023/05/15 03:57:40;;;;;;;3.40;3.10;;;;;;;20.40;38.37;99871.78;104160;1264;72188;-60
2023/05/15 04:00:09;;;;;;;3.60;2.60;;;;;;;20.56;37.62;99871.50;104444;1259;72712;-60
2023/05/15 04:02:40;;;;;;;3.30;2.80;;;;;;;20.67;37.86;99871.88;104325;1272;61490;-60
2023/05/15 04:05:07;;;;;;;5.40;2.60;;;;;;;20.79;38.01;99868.27;104364;1258;60847;-61
2023/05/15 04:07:35;;;;;;;5.50;3.20;;;;;;;20.90;38.05;99869.52;104306;1260;75272;-60
2023/05/15 04:10:02;;;;;;;3.20;2.60;;;;;;;20.97;38.23;99870.15;104268;1261;69697;-60
2023/05/15 04:12:31;;;;;;;;;;;;;;;21.03;38.47;99868.06;104389;1259;75858;-60
2023/05/15 04:14:59;;;;;;;2.60;2.40;;;;;;;21.14;39.18;99871.77;104266;1272;60762;-60
2023/05/15 04:17:26;;;;;;;4.40;2.50;;;;;;;21.17;39.26;99870.99;104360;1265;60847;-60
2023/05/15 04:19:53;;;;;;;3.00;2.30;;;;;;;21.27;38.53;99872.85;104381;1260;74592;-60
2023/05/15 04:22:20;;;;;;;2.70;2.00;;;;;;;21.40;37.57;99874.61;104317;1267;70439;-61
2023/05/15 04:24:47;;;;;;;3.20;2.10;;;;;;;21.54;37.82;99872.42;104252;1271;72707;-60
2023/05/15 04:27:15;;;;;;;3.70;2.70;;;;;;;21.66;38.29;99868.85;104355;1264;60378;-60
2023/05/15 04:29:42;;;;;;;2.90;2.30;;;;;;;21.83;39.09;99867.96;104364;1258;62709;-62
2023/05/15 04:32:09;;;;;;;6.80;2.70;;;;;;;21.97;38.27;99869.27;104420;1259;73115;-60
2023/05/15 04:34:36;;;;;;;3.20;2.30;;;;;;;22.11;38.19;99867.13;104358;1267;70101;-61
2023/05/15 04:37:03;;;;;;;2.80;2.60;;;;;;;22.28;38.09;99864.05;104337;1255;75100;-60
2023/05/15 04:39:31;;;;;;;2.90;2.60;;;;;;;22.40;37.94;99864.80;104365;1264;60989;-64
2023/05/15 04:41:58;;;;;;;3.30;2.80;;;;;;;22.52;37.88;99861.06;104305;1259;60903;-62
2023/05/15 04:44:25;;;;;;;2.50;2.30;;;;;;;22.62;37.32;99861.81;104404;1254;74511;-62
2023/05/15 04:46:52;;;;;;;5.10;2.30;;;;;;;22.72;36.58;99860.13;104295;1260;69214;-61
2023/05/15 04:49:19;;;;;;;2.50;2.30;;;;;;;22.84;36.81;99856.91;104285;1267;72701;-61
2023/05/15 04:51:47;;;;;;;5.00;2.10;;;;;;;23.00;37.00;99851.20;104340;1264;61179;-60
2023/05/15 04:54:14;;;;;;;2.50;2.30;;;;;;;23.10;37.23;99850.33;104561;1270;60966;-61
2023/05/15 04:56:41;;;;;;;2.20;2.00;;;;;;;23.16;36.64;99854.76;104353;1261;76069;-60
2023/05/15 04:59:09;;;;;;;4.10;2.10;;;;;;;23.24;36.86;99848.96;104360;1260;70060;-60
2023/05/15 05:01:37;;;;;;;2.30;1.90;;;;;;;23.36;37.06;99848.47;104520;1255;73152;-61
2023/05/15 05:04:04;;;;;;;5.60;2.30;;;;;;;23.53;37.10;99846.69;104411;1260;60772;-60
2023/05/15 05:06:31;;;;;;;3.80;2.30;;;;;;;23.65;37.20;99843.94;104444;1274;60759;-61
2023/05/15 05:08:58;;;;;;;3.20;1.70;;;;;;;23.81;36.86;99844.21;104401;1267;74479;-62
2023/05/15 05:11:25;;;;;;;2.10;1.90;;;;;;;23.92;37.31;99841.39;104371;1254;68787;-61
2023/05/15 05:13:53;;;;;;;4.50;2.30;;;;;;;24.09;37.15;99844.13;104451;1254;73541;-63
2023/05/15 05:16:21;;;;;;;2.90;1.90;;;;;;;24.20;37.22;99839.78;104236;1276;60619;-62
2023/05/15 05:18:49;;;;;;;2.20;1.90;;;;;;;24.28;36.78;99837.02;104360;1259;60540;-63
2023/05/15 05:21:16;;;;;;;1.70;1.50;;;;;;;24.39;36.32;99839.73;104450;1260;74340;-63
2023/05/15 05:23:43;;;;;;;2.40;1.70;;;;;;;24.50;35.92;99839.04;105156;1255;69743;-61
2023/05/15 05:26:10;;;;;;;2.90;1.90;;;;;;;24.61;35.80;99838.66;104274;1260;73447;-62
2023/05/15 05:28:38;;;;;;;5.30;1.70;;;;;;;24.75;35.34;99842.55;104403;1264;60547;-62
2023/05/15 05:31:06;;;;;;;3.20;1.80;;;;;;;24.88;35.53;99838.77;104476;1272;59958;-62
2023/05/15 05:33:33;;;;;;;;;;;;;;;25.02;35.83;99837.70;104238;1261;73651;-62
2023/05/15 05:36:00;;;;;;;2.20;2.00;;;;;;;25.17;35.98;99834.73;104343;1254;69398;-62
2023/05/15 05:38:27;;;;;;;3.30;2.20;;;;;;;25.19;36.09;99833.33;104358;1270;72839;-62
2023/05/15 05:40:54;;;;;;;4.50;2.20;;;;;;;25.27;36.08;99833.45;104439;1261;61039;-63
2023/05/15 05:43:21;;;;;;;3.90;2.70;;;;;;;25.38;36.07;99831.94;104379;1259;61405;-63
2023/05/15 05:45:49;;;;;;;2.40;2.00;;;;;;;25.48;36.21;99830.77;104244;1254;75325;-63
2023/05/15 05:48:16;;;;;;;2.00;1.80;;;;;;;25.52;36.06;99825.11;104068;1266;70727;-62
2023/05/15 05:50:43;;;;;;;2.30;1.90;;;;;;;25.67;35.59;99823.63;104382;1254;73645;-63
2023/05/15 05:53:11;;;;;;;2.00;1.70;;;;;;;25.74;35.52;99825.04;104366;1267;60572;-63
2023/05/15 05:55:38;;;;;;;2.90;1.40;;;;;;;25.77;34.80;99829.17;104198;1269;60654;-63
2023/05/15 05:58:05;;;;;;;1.70;1.50;;;;;;;25.83;34.46;99828.73;104349;1259;74492;-63
2023/05/15 06:00:44;;;;;;;3.50;1.50;;;;;;;25.92;34.33;99824.41;104311;1256;70287;-63
2023/05/15 06:03:11;;;;;;;1.80;1.70;;;;;;;26.00;34.42;99824.91;104238;1267;75171;-63
2023/05/15 06:05:38;;;;;;;1.80;1.70;;;;;;;26.05;33.99;99825.07;104355;1254;60510;-63
2023/05/15 06:08:05;;;;;;;3.80;1.80;;;;;;;26.14;33.41;99821.57;104328;1267;60702;-63
2023/05/15 06:10:33;;;;;;;;;;;;;;;26.24;33.40;99823.91;104557;1258;74581;-63
2023/05/15 06:13:00;;;;;;;3.90;1.70;;;;;;;26.42;32.98;99825.29;107176;1254;72151;-64
2023/05/15 06:15:27;;;;;;;2.60;1.50;;;;;;;26.51;32.95;99825.62;106513;1256;72615;-64
2023/05/15 06:17:55;;;;;;;2.30;1.50;;;;;;;26.56;33.11;99825.05;104318;1270;60616;-64
2023/05/15 06:20:22;;;;;;;;;;;;;;;26.63;33.19;99824.17;104363;1260;60966;-64
2023/05/15 06:22:50;;;;;;;1.50;1.20;;;;;;;26.74;32.97;99823.64;104576;1257;74159;-63
2023/05/15 06:25:17;;;;;;;2.00;1.70;;;;;;;26.77;32.14;99821.69;104577;1254;70072;-64
2023/05/15 06:27:44;;;;;;;3.00;1.60;;;;;;;26.89;32.58;99821.34;104353;1264;75224;-65
2023/05/15 06:30:12;;;;;;;1.70;1.60;;;;;;;26.99;32.30;99819.52;104429;1260;61002;-64
2023/05/15 06:32:40;;;;;;;1.60;1.20;;;;;;;27.06;31.78;99816.11;104702;1271;60887;-63
2023/05/15 06:35:08;;;;;;;2.00;1.40;;;;;;;27.10;31.61;99814.34;104344;1273;76293;-62
2023/05/15 06:37:36;;;;;;;1.70;1.40;;;;;;;27.17;31.49;99811.84;104385;1260;70594;-65
2023/05/15 06:40:04;;;;;;;3.50;1.50;;;;;;;27.24;31.33;99809.95;104406;1267;72667;-61
2023/05/15 06:42:32;;;;;;;1.40;1.30;;;;;;;27.30;30.31;99805.67;104458;1257;62919;-62
2023/05/15 06:44:59;;;;;;;1.70;1.20;;;;;;;27.38;30.48;99800.51;104769;1257;60569;-63
2023/05/15 06:47:26;;;;;;;1.50;1.20;;;;;;;27.47;30.39;99801.22;105039;1264;74288;-62
2023/05/15 06:49:54;;;;;;;1.60;1.50;;;;;;;27.53;30.24;99800.63;104393;1267;71249;-61
2023/05/15 06:52:21;;;;;;;;;;;;;;;27.59;29.77;99797.64;104677;1255;72647;-62
2023/05/15 06:54:48;;;;;;;1.90;1.40;;;;;;;27.77;29.99;99796.52;104678;1261;60315;-60
2023/05/15 06:57:15;;;;;;;2.10;1.70;;;;;;;27.88;30.20;99797.27;104401;1254;62342;-65
2023/05/15 06:59:43;;;;;;;1.70;1.30;;;;;;;28.01;29.37;99795.48;104474;1255;73268;-62
2023/05/15 07:02:10;;;;;;;1.70;1.50;;;;;;;28.15;29.75;99798.37;104939;1252;69288;-61
2023/05/15 07:04:38;;;;;;;1.40;1.30;;;;;;;28.27;28.67;99794.11;104503;1259;75136;-61
2023/05/15 07:07:05;;;;;;;1.40;1.30;;;;;;;28.32;28.60;99794.02;104418;1255;60618;-61
2023/05/15 07:09:34;;;;;;;1.50;1.40;;;;;;;28.32;28.52;99792.30;104601;1255;60707;-62
2023/05/15 07:12:02;;;;;;;2.60;1.60;;;;;;;28.38;27.43;99789.02;105033;1253;76354;-62
2023/05/15 07:14:30;;;;;;;2.30;1.50;;;;;;;28.45;28.59;99789.51;108196;1254;70085;-63
2023/05/15 07:16:57;;;;;;;2.80;2.00;;;;;;;28.55;28.64;99788.54;105739;1254;74927;-62
2023/05/15 07:19:24;;;;;;;1.50;1.30;;;;;;;28.58;27.76;99783.89;105057;1257;60559;-64
2023/05/15 07:21:51;;;;;;;1.50;1.20;;;;;;;28.64;28.30;99782.64;105253;1253;62816;-61
2023/05/15 07:24:19;;;;;;;2.10;1.70;;;;;;;28.76;28.02;99783.44;104892;1255;74403;-62
2023/05/15 07:26:46;;;;;;;1.90;1.80;;;;;;;28.89;27.94;99774.91;104776;1257;71938;-61
2023/05/15 07:29:24;;;;;;;2.20;1.60;;;;;;;29.02;28.11;99778.77;104730;1254;73022;-62
2023/05/15 07:31:52;;;;;;;2.90;1.70;;;;;;;29.11;27.51;99776.61;104853;1257;60619;-61
2023/05/15 07:34:20;;;;;;;2.70;1.70;;;;;;;29.18;27.55;99773.65;104415;1260;61854;-61
2023/05/15 07:36:47;;;;;;;1.80;1.60;;;;;;;29.29;27.51;99771.24;104648;1256;74697;-61
2023/05/15 07:39:14;;;;;;;2.50;1.40;;;;;;;29.39;27.01;99769.35;104392;1258;72370;-62
2023/05/15 07:41:41;;;;;;;2.20;2.10;;;;;;;29.44;26.93;99767.44;104546;1254;72873;-62
2023/05/15 07:44:09;;;;;;;3.30;1.60;;;;;;;29.50;26.99;99765.36;104422;1270;60614;-62
2023/05/15 07:46:37;;;;;;;;;;;;;;;29.57;26.97;99764.50;104821;1261;62507;-61
2023/05/15 07:49:05;;;;;;;2.00;1.90;;;;;;;29.64;26.50;99761.23;104404;1259;73355;-62
2023/05/15 07:51:32;;;;;;;2.10;1.80;;;;;;;29.60;26.89;99757.55;105038;1254;72178;-62
2023/05/15 07:53:59;;;;;;;2.60;1.70;;;;;;;29.64;26.75;99753.23;104396;1257;74203;-63
2023/05/15 07:56:27;;;;;;;3.40;1.90;;;;;;;29.71;26.05;99748.63;104710;1258;61242;-63
2023/05/15 07:58:55;;;;;;;1.80;1.60;;;;;;;29.80;26.02;99749.25;105086;1251;60510;-66
2023/05/15 08:01:22;;;;;;;4.70;1.90;;;;;;;29.86;25.93;99746.88;104783;1254;74156;-63
2023/05/15 08:03:50;;;;;;;2.60;1.70;;;;;;;29.97;25.98;99745.86;104886;1254;70351;-63
2023/05/15 08:06:17;;;;;;;2.40;1.50;;;;;;;30.04;25.79;99746.40;104503;1253;72671;-61
2023/05/15 08:08:45;;;;;;;2.00;1.80;;;;;;;30.12;25.92;99741.13;104742;1257;61175;-63
2023/05/15 08:11:12;;;;;;;2.90;1.60;;;;;;;30.15;25.44;99739.48;104587;1261;62058;-64
2023/05/15 08:13:39;;;;;;;1.90;1.80;;;;;;;30.19;24.97;99736.66;105593;1252;74148;-63
2023/05/15 08:16:06;;;;;;;3.50;1.80;;;;;;;30.25;24.45;99736.44;107812;1254;69562;-65
2023/05/15 08:18:33;;;;;;;3.40;1.50;;;;;;;30.30;25.01;99736.41;105478;1254;72788;-64
2023/05/15 08:21:00;;;;;;;1.70;1.60;;;;;;;30.34;24.28;99733.72;104464;1251;61474;-63
2023/05/15 08:23:30;;;;;;;1.70;1.60;;;;;;;30.41;23.85;99733.38;104569;1254;60895;-63
2023/05/15 08:25:58;;;;;;;1.50;1.40;;;;;;;30.44;24.63;99735.70;105019;1258;74064;-63
2023/05/15 08:28:25;;;;;;;2.10;1.70;;;;;;;30.50;24.64;99730.96;104881;1257;70136;-66
2023/05/15 08:30:52;;;;;;;1.80;1.70;;;;;;;30.50;24.37;99731.34;105012;1254;74716;-63
2023/05/15 08:33:19;;;;;;;3.20;2.10;;;;;;;30.39;25.05;99734.70;104586;1254;60634;-62
2023/05/15 08:35:47;;;;;;;2.60;1.70;;;;;;;30.40;24.46;99735.91;104513;1253;60696;-62
2023/05/15 08:38:14;;;;;;;2.00;1.90;;;;;;;30.47;24.55;99735.49;104596;1263;75758;-63
2023/05/15 08:40:41;;;;;;;2.60;1.90;;;;;;;30.51;23.54;99730.02;104738;1257;70259;-63
2023/05/15 08:43:13;;;;;;;1.90;1.70;;;;;;;30.55;24.02;99723.46;104847;1258;73358;-63
2023/05/15 08:45:41;;;;;;;4.00;2.00;;;;;;;30.60;23.86;99715.38;104354;1260;60740;-64
2023/05/15 08:48:10;;;;;;;3.60;2.10;;;;;;;30.64;23.91;99719.84;104536;1263;61065;-62
2023/05/15 08:50:38;;;;;;;3.20;1.90;;;;;;;30.72;23.99;99717.73;104616;1256;74208;-64
2023/05/15 08:53:05;;;;;;;2.20;2.00;;;;;;;30.82;23.94;99715.41;104619;1254;70481;-63
2023/05/15 08:55:32;;;;;;;4.10;1.90;;;;;;;30.87;23.55;99716.92;104704;1260;72432;-64
2023/05/15 08:57:59;;;;;;;2.80;1.60;;;;;;;30.94;22.86;99711.73;104992;1254;60568;-62
2023/05/15 09:00:26;;;;;;;2.10;1.90;;;;;;;31.06;23.25;99710.32;104622;1254;62833;-62
2023/05/15 09:02:54;;;;;;;2.70;1.70;;;;;;;31.20;22.93;99708.09;104946;1254;74801;-65
2023/05/15 09:05:21;;;;;;;1.70;1.60;;;;;;;31.23;22.68;99707.81;105631;1253;70507;-63
2023/05/15 09:07:49;;;;;;;2.40;1.80;;;;;;;31.29;22.64;99707.44;104616;1256;73626;-61
2023/05/15 09:10:16;;;;;;;1.90;1.70;;;;;;;31.28;22.27;99708.10;104597;1260;62566;-61
2023/05/15 09:15:33;;;;;;;2.40;1.70;;;;;;;30.34;23.17;99710.67;104927;1292;601963;-62
2023/05/15 09:18:00;;;;;;;3.10;1.50;;;;;;;31.04;22.32;99707.34;105017;1273;62278;-62
2023/05/15 09:20:32;;;;;;;4.40;1.60;;;;;;;30.99;22.89;99705.14;105009;1263;60901;-62
2023/05/15 09:23:01;;;;;;;1.80;1.70;;;;;;;31.03;22.63;99699.52;104042;1260;73526;-62
2023/05/15 09:25:41;;;;;;;1.60;1.50;;;;;;;31.04;22.47;99697.80;104118;1261;70237;-63
2023/05/15 09:28:09;;;;;;;1.80;1.70;;;;;;;31.15;21.91;99694.59;103979;1264;337533;-63
2023/05/15 09:30:38;;;;;;;2.10;1.90;;;;;;;31.14;22.07;99692.04;104456;1257;60788;-63
2023/05/15 09:33:05;;;;;;;2.50;1.70;;;;;;;31.10;22.00;99689.35;106817;1256;61089;-63
2023/05/15 09:35:34;;;;;;;2.40;1.80;;;;;;;31.20;22.52;99687.52;107515;1258;72161;-61
2023/05/15 09:38:06;;;;;;;3.00;1.90;;;;;;;31.19;22.39;99687.10;104394;1257;71787;-60
2023/05/15 09:40:33;;;;;;;2.50;1.80;;;;;;;31.20;22.15;99690.62;104427;1257;73475;-63
2023/05/15 09:43:01;;;;;;;1.70;1.60;;;;;;;31.31;22.18;99685.64;104347;1272;59992;-62
2023/05/15 09:45:28;;;;;;;2.70;1.90;;;;;;;31.42;22.25;99683.06;103937;1264;62698;-65
2023/05/15 09:47:58;;;;;;;2.50;2.00;;;;;;;31.50;21.85;99687.07;104289;1262;72661;-63
2023/05/15 09:50:36;;;;;;;2.40;1.60;;;;;;;31.49;21.62;99686.02;104327;1261;70152;-61
2023/05/15 09:53:04;;;;;;;;;;;;;;;31.47;21.59;99686.38;104205;1256;72585;-63
2023/05/15 09:55:32;;;;;;;2.00;1.60;;;;;;;31.54;21.98;99684.09;104226;1260;59724;-60
2023/05/15 09:58:05;;;;;;;2.40;1.50;;;;;;;31.47;22.36;99683.61;104335;1261;60182;-60
2023/05/15 10:00:33;;;;;;;3.40;1.90;;;;;;;31.48;22.30;99677.61;104286;1260;73449;-64
2023/05/15 10:03:02;;;;;;;5.90;2.00;;;;;;;31.49;22.80;99679.81;104042;1264;70764;-60
2023/05/15 10:05:29;;;;;;;2.10;1.90;;;;;;;31.59;23.06;99681.60;104154;1273;72201;-61
2023/05/15 10:08:09;;;;;;;2.20;2.00;;;;;;;31.74;22.31;99677.65;104402;1267;61543;-61
2023/05/15 10:10:36;;;;;;;2.50;2.10;;;;;;;31.92;22.35;99681.85;104323;1260;59857;-61
2023/05/15 10:13:04;;;;;;;3.60;1.90;;;;;;;32.01;22.06;99685.67;104232;1258;73777;-60
2023/05/15 10:15:32;;;;;;;2.90;2.00;;;;;;;32.03;22.00;99675.89;107306;1256;69929;-63
2023/05/15 10:17:59;;;;;;;2.10;1.90;;;;;;;32.07;22.38;99671.92;107603;1256;73075;-63
2023/05/15 10:20:26;;;;;;;;;;;;;;;32.08;22.04;99673.54;107714;1256;60680;-62
2023/05/15 10:22:55;;;;;;;3.00;1.70;;;;;;;32.08;21.21;99669.09;107644;1257;60577;-63
2023/05/15 10:25:34;;;;;;;1.80;1.70;;;;;;;31.96;21.83;99665.10;107692;1254;73654;-62
2023/05/15 10:28:01;;;;;;;4.70;1.80;;;;;;;31.97;21.96;99666.85;107325;1257;71428;-63
2023/05/15 10:30:30;;;;;;;2.00;1.60;;;;;;;31.99;22.06;99660.97;104124;1263;72665;-62
2023/05/15 10:32:57;;;;;;;3.80;1.90;;;;;;;32.01;21.54;99658.09;104187;1261;61432;-62
2023/05/15 10:35:24;;;;;;;2.70;1.40;;;;;;;32.05;21.40;99654.77;104669;1263;61346;-63
2023/05/15 10:37:52;;;;;;;4.10;1.80;;;;;;;31.94;20.79;99658.27;104450;1257;74232;-62
2023/05/15 10:40:19;;;;;;;1.90;1.80;;;;;;;31.82;21.29;99662.95;103983;1269;70272;-61
2023/05/15 10:42:46;;;;;;;8.40;1.90;;;;;;;31.76;21.27;99659.30;104090;1257;73806;-61
2023/05/15 10:45:13;;;;;;;1.70;1.60;;;;;;;31.73;21.05;99655.48;104531;1261;60684;-62
2023/05/15 10:47:41;;;;;;;1.60;1.50;;;;;;;31.59;20.92;99649.02;104398;1255;60795;-62
2023/05/15 10:50:10;;;;;;;1.60;1.50;;;;;;;31.44;21.34;99648.74;104275;1261;73731;-60
2023/05/15 10:52:38;;;;;;;3.60;1.50;;;;;;;31.37;21.55;99647.27;104281;1260;70479;-61
2023/05/15 10:55:05;;;;;;;;;;;;;;;31.27;21.62;99648.80;104503;1260;72636;-63
2023/05/15 10:57:33;;;;;;;4.20;1.70;;;;;;;31.26;21.40;99647.67;104616;1262;60121;-61
2023/05/15 11:00:01;;;;;;;2.30;1.90;;;;;;;31.30;21.67;99643.38;104422;1270;61598;-63
2023/05/15 11:02:30;;;;;;;4.50;1.60;;;;;;;31.37;21.65;99636.81;104493;1256;74908;-62
2023/05/15 11:05:02;;;;;;;2.10;1.80;;;;;;;31.54;21.58;99628.83;104284;1256;70532;-62
2023/05/15 11:07:29;;;;;;;1.60;1.50;;;;;;;31.63;20.84;99626.97;104192;1260;72129;-61
2023/05/15 11:09:56;;;;;;;1.90;1.60;;;;;;;31.65;20.83;99622.21;104273;1265;60138;-61
2023/05/15 11:12:24;;;;;;;;;;;;;;;31.67;20.89;99618.42;104464;1257;60506;-61
2023/05/15 11:14:54;;;;;;;1.90;1.70;;;;;;;31.64;21.37;99618.13;106559;1257;73106;-62
2023/05/15 11:17:22;;;;;;;2.00;1.70;;;;;;;31.54;21.62;99616.20;107635;1254;70342;-62
2023/05/15 11:19:49;;;;;;;;;;;;;;;31.48;21.49;99611.36;104407;1260;73235;-61
2023/05/15 11:22:26;;;;;;;;;;;;;;;31.53;21.22;99606.51;104568;1257;60581;-61
2023/05/15 11:25:15;;;;;;;2.30;1.40;;;;;;;31.60;20.95;99602.97;104828;1259;60372;-61
2023/05/15 11:27:46;;;;;;;1.30;1.20;;;;;;;31.62;21.18;99601.27;104481;1255;72813;-62
2023/05/15 11:30:19;;;;;;;1.80;1.70;;;;;;;31.62;21.39;99599.84;104286;1257;70429;-61
2023/05/15 11:32:46;;;;;;;2.60;1.80;;;;;;;31.67;21.24;99592.30;104035;1261;73049;-61
2023/05/15 11:35:44;;;;;;;2.60;1.90;;;;;;;31.85;21.39;99591.63;104266;1259;63537;-62
2023/05/15 11:38:23;;;;;;;3.70;2.30;;;;;;;32.13;21.26;99589.91;107635;1256;59844;-65